KSSI

McKinnon St Simons Island Airport

Brunswick, Georgia, USA
METAR KSSI 211353Z AUTO 12009KT 10SM OVC024 26/23 A3015 RMK AO2 SLP209 T02610228
Observed Flight Rules
May-21 @ 13:53 UTC (an hour ago) Marginal Visual Flight Rules
Wind Visibility Clouds
120° at 9 knots 10 miles
  • Overcast at 2,400' AGL
Temperatures Readings
Current 26°C / 79°F
Dewpoint 23°C / 73°F
Humidity 84%
Altimeter 30.15" Hg
Pressure 1020.9 hPa
Elevation 6
METAR KSSI 211353Z AUTO 12009KT 10SM OVC024 26/23 A3015 RMK AO2 SLP209 T02610228
Observed Flight Rules
May-21 @ 13:53 UTC
(an hour ago)
MVFR
Wind Visibility
120° at 9 knots 10 miles
Clouds
  • Overcast at 2,400' AGL
Temperature Dewpoint
26°C / 79°F 23°C / 73°F
Humidity Altimeter Pressure
84% 30.15" Hg 1020.9 hPa